createdAt,value
2018-05-04T00:00:32.188Z,66.48
2018-05-04T00:01:32.180Z,66.48
2018-05-04T00:02:32.191Z,67.05
2018-05-04T00:03:32.175Z,67.05
2018-05-04T00:04:32.176Z,67.05
2018-05-04T00:05:32.182Z,66.86
2018-05-04T00:06:32.175Z,67.05
2018-05-04T00:07:32.182Z,66.58
2018-05-04T00:08:32.178Z,66.96
2018-05-04T00:09:32.174Z,67.15
2018-05-04T00:10:32.183Z,66.96
2018-05-04T00:11:31.920Z,66.96
2018-05-04T00:12:31.919Z,66.45
2018-05-04T00:13:32.183Z,67.15
2018-05-04T00:14:32.180Z,66.67
2018-05-04T00:15:32.430Z,67.05
2018-05-04T00:16:32.180Z,66.64
2018-05-04T00:17:32.179Z,66.96
2018-05-04T00:18:32.173Z,67.05
2018-05-04T00:19:32.180Z,66.93
2018-05-04T00:20:32.186Z,66.93
2018-05-04T00:21:31.923Z,67.6
2018-05-04T00:22:32.172Z,67.44
2018-05-04T00:23:32.313Z,67.21
2018-05-04T00:24:31.919Z,67.25
2018-05-04T00:25:31.919Z,67.15
2018-05-04T00:26:32.174Z,67.34
2018-05-04T00:27:31.917Z,67.25
2018-05-04T00:28:32.172Z,67.44
2018-05-04T00:29:31.916Z,67.41
2018-05-04T00:30:32.166Z,67.31
2018-05-04T00:31:32.184Z,67.11
2018-05-04T00:32:32.170Z,67.88
2018-05-04T00:33:32.167Z,67.41
2018-05-04T00:34:32.173Z,67.6
2018-05-04T00:35:31.920Z,67.79
2018-05-04T00:36:32.171Z,67.6
2018-05-04T00:37:32.167Z,67.79
2018-05-04T00:38:31.920Z,67.79
2018-05-04T00:39:32.171Z,67.79
2018-05-04T00:40:31.909Z,68.07
2018-05-04T00:41:32.162Z,68.07
2018-05-04T00:42:31.908Z,68.07
2018-05-04T00:43:31.907Z,68.17
2018-05-04T00:44:32.164Z,68.07
2018-05-04T00:45:32.161Z,68.84
2018-05-04T00:46:31.906Z,68.46
2018-05-04T00:47:32.164Z,68.94
2018-05-04T00:48:32.163Z,69.13
2018-05-04T00:49:32.161Z,68.94
2018-05-04T00:50:31.908Z,69.09
2018-05-04T00:51:32.164Z,68.84
2018-05-04T00:52:32.170Z,69.19
2018-05-04T00:53:32.168Z,69.67
2018-05-04T00:54:32.153Z,69.57
2018-05-04T00:55:32.155Z,69.29
2018-05-04T00:56:32.153Z,70.15
2018-05-04T00:57:32.165Z,69.76
2018-05-04T00:58:32.154Z,70.15
2018-05-04T00:59:32.174Z,70.34
2018-05-04T01:00:32.157Z,70.43
2018-05-04T01:01:32.156Z,70.34
2018-05-04T01:02:31.896Z,70.43
2018-05-04T01:03:31.903Z,70.53
2018-05-04T01:04:32.171Z,71.01
2018-05-04T01:05:32.148Z,70.81
2018-05-04T01:06:32.163Z,70.72
2018-05-04T01:07:32.147Z,70.91
2018-05-04T01:08:31.904Z,70.81
2018-05-04T01:09:32.145Z,70.43
2018-05-04T01:10:32.184Z,70.43
2018-05-04T01:11:31.900Z,70.53
2018-05-04T01:12:31.889Z,70.53
2018-05-04T01:13:32.144Z,70.34
2018-05-04T01:14:32.144Z,70.43
2018-05-04T01:15:32.138Z,70.43
2018-05-04T01:16:33.749Z,70.43
2018-05-04T01:17:32.135Z,70.05
2018-05-04T01:18:32.138Z,70.43
2018-05-04T01:19:32.144Z,70.34
2018-05-04T01:20:32.133Z,70.43
2018-05-04T01:21:31.882Z,70.43
2018-05-04T01:22:32.138Z,70.81
2018-05-04T01:23:32.134Z,70.72
2018-05-04T01:24:32.151Z,70.91
2018-05-04T01:25:32.136Z,70.53
2018-05-04T01:26:32.133Z,70.34
2018-05-04T01:27:32.139Z,70.53
2018-05-04T01:28:32.138Z,70.78
2018-05-04T01:29:32.128Z,70.91
2018-05-04T01:30:32.129Z,71.16
2018-05-04T01:31:32.139Z,71.16
2018-05-04T01:32:32.136Z,71.36
2018-05-04T01:33:31.872Z,71.73
2018-05-04T01:34:32.120Z,71.55
2018-05-04T01:35:32.121Z,72.02
2018-05-04T01:36:32.122Z,72.22
2018-05-04T01:37:31.874Z,72.22
2018-05-04T01:38:32.120Z,72.5
2018-05-04T01:39:31.865Z,72.22
2018-05-04T01:40:32.117Z,72.69
2018-05-04T01:41:32.119Z,72.6
2018-05-04T01:42:32.115Z,72.5
2018-05-04T01:43:32.118Z,72.41
2018-05-04T01:44:32.118Z,72.41
2018-05-04T01:45:31.861Z,72.69
2018-05-04T01:46:32.116Z,73.27
2018-05-04T01:47:32.116Z,72.98
2018-05-04T01:48:32.120Z,72.88
2018-05-04T01:49:31.867Z,72.75
2018-05-04T01:50:31.864Z,73.43
2018-05-04T01:51:31.863Z,73.52
2018-05-04T01:52:32.115Z,73.61
2018-05-04T01:53:32.108Z,73.71
2018-05-04T01:54:32.104Z,73.61
2018-05-04T01:55:32.101Z,73.52
2018-05-04T01:56:31.848Z,73.71
2018-05-04T01:57:31.847Z,73.71
2018-05-04T01:58:31.869Z,73.43
2018-05-04T01:59:32.107Z,73.8
2018-05-04T02:00:32.096Z,74.19
2018-05-04T02:01:32.099Z,74.19
2018-05-04T02:02:32.096Z,74.28
2018-05-04T02:03:32.107Z,73.8
2018-05-04T02:04:31.840Z,74.57
2018-05-04T02:05:32.090Z,74.38
2018-05-04T02:06:32.088Z,74.28
2018-05-04T02:07:31.837Z,74.76
2018-05-04T02:08:32.090Z,74.66
2018-05-04T02:09:32.083Z,74.76
2018-05-04T02:10:32.081Z,74.76
2018-05-04T02:11:31.836Z,74.95
2018-05-04T02:12:32.095Z,74.38
2018-05-04T02:13:32.078Z,74.66
2018-05-04T02:14:32.087Z,75.34
2018-05-04T02:15:31.828Z,74.95
2018-05-04T02:16:32.073Z,75.24
2018-05-04T02:17:32.078Z,75.71
2018-05-04T02:18:32.071Z,75.81
2018-05-04T02:19:32.068Z,75.81
2018-05-04T02:20:32.074Z,75.52
2018-05-04T02:21:32.073Z,75.62
2018-05-04T02:22:32.070Z,75.62
2018-05-04T02:23:32.074Z,75.52
2018-05-04T02:24:32.064Z,75.43
2018-05-04T02:25:32.092Z,75.71
2018-05-04T02:26:31.821Z,75.52
2018-05-04T02:27:31.824Z,75.91
2018-05-04T02:28:32.101Z,75.91
2018-05-04T02:29:32.059Z,75.81
2018-05-04T02:30:32.056Z,75.81
2018-05-04T02:31:32.060Z,76.2
2018-05-04T02:32:32.074Z,76.57
2018-05-04T02:33:32.056Z,76.39
2018-05-04T02:34:32.054Z,76.29
2018-05-04T02:35:31.797Z,76.2
2018-05-04T02:36:31.804Z,76.39
2018-05-04T02:37:32.047Z,76.1
2018-05-04T02:38:31.797Z,76.57
2018-05-04T02:39:32.049Z,76.39
2018-05-04T02:40:32.042Z,76.86
2018-05-04T02:41:32.058Z,76.77
2018-05-04T02:42:32.050Z,76.92
2018-05-04T02:43:32.060Z,76.96
2018-05-04T02:44:31.797Z,76.73
2018-05-04T02:45:32.051Z,77.06
2018-05-04T02:46:32.043Z,77.5
2018-05-04T02:47:32.056Z,77.3
2018-05-04T02:48:32.044Z,77.21
2018-05-04T02:49:32.043Z,77.3
2018-05-04T02:50:31.779Z,77.3
2018-05-04T02:51:32.026Z,77.4
2018-05-04T02:52:31.774Z,77.5
2018-05-04T02:53:32.041Z,77.11
2018-05-04T02:54:32.023Z,77.87
2018-05-04T02:55:32.122Z,77.78
2018-05-04T02:56:32.021Z,77.69
2018-05-04T02:57:32.025Z,77.78
2018-05-04T02:58:32.023Z,78.16
2018-05-04T02:59:32.029Z,77.78
2018-05-04T03:00:32.027Z,78.45
2018-05-04T03:01:32.011Z,77.97
2018-05-04T03:02:32.013Z,77.97
2018-05-04T03:03:31.755Z,78.64
2018-05-04T03:04:32.013Z,78.07
2018-05-04T03:05:32.009Z,78.26
2018-05-04T03:06:32.014Z,77.97
2018-05-04T03:07:32.012Z,77.87
2018-05-04T03:08:32.013Z,78.16
2018-05-04T03:09:32.013Z,77.69
2018-05-04T03:10:31.750Z,78.36
2018-05-04T03:11:31.998Z,78.74
2018-05-04T03:12:32.001Z,78.64
2018-05-04T03:13:31.741Z,77.78
2018-05-04T03:14:31.992Z,78.16
2018-05-04T03:15:32.009Z,77.4
2018-05-04T03:16:31.996Z,77.3
2018-05-04T03:17:32.005Z,77.59
2018-05-04T03:18:32.005Z,77.3
2018-05-04T03:19:31.984Z,77.3
2018-05-04T03:20:31.980Z,77.3
2018-05-04T03:21:31.977Z,77.11
2018-05-04T03:22:31.976Z,77.21
2018-05-04T03:23:31.973Z,77.11
2018-05-04T03:24:31.976Z,77.3
2018-05-04T03:25:31.724Z,77.3
2018-05-04T03:26:31.728Z,77.3
2018-05-04T03:27:31.978Z,77.21
2018-05-04T03:28:31.967Z,77.11
2018-05-04T03:29:31.966Z,77.01
2018-05-04T03:30:31.971Z,77.21
2018-05-04T03:31:31.965Z,77.21
2018-05-04T03:32:31.975Z,77.3
2018-05-04T03:33:31.975Z,77.59
2018-05-04T03:34:31.963Z,77.3
2018-05-04T03:35:31.955Z,77.3
2018-05-04T03:36:31.956Z,77.3
2018-05-04T03:37:31.954Z,77.78
2018-05-04T03:38:31.980Z,77.69
2018-05-04T03:39:31.956Z,77.97
2018-05-04T03:40:31.946Z,77.97
2018-05-04T03:41:31.947Z,78.16
2018-05-04T03:42:31.980Z,78.45
2018-05-04T03:43:31.940Z,77.87
2018-05-04T03:44:31.944Z,78.55
2018-05-04T03:45:31.956Z,78.64
2018-05-04T03:46:31.936Z,78.64
2018-05-04T03:47:31.939Z,78.36
2018-05-04T03:48:31.937Z,78.64
2018-05-04T03:49:31.935Z,78.55
2018-05-04T03:50:31.936Z,78.7
2018-05-04T03:51:31.931Z,78.36
2018-05-04T03:52:31.930Z,78.45
2018-05-04T03:53:31.673Z,78.74
2018-05-04T03:54:31.695Z,79.02
2018-05-04T03:55:31.926Z,79.02
2018-05-04T03:56:31.921Z,79.5
2018-05-04T03:57:31.668Z,79.88
2018-05-04T03:58:31.920Z,79.5
2018-05-04T03:59:31.926Z,79.65
2018-05-04T04:00:31.919Z,79.75
2018-05-04T04:01:31.919Z,79.94
2018-05-04T04:02:31.749Z,79.75
2018-05-04T04:03:31.924Z,79.98
2018-05-04T04:04:31.665Z,79.94
2018-05-04T04:05:31.921Z,80.13
2018-05-04T04:06:31.920Z,80.13
2018-05-04T04:07:31.988Z,80.13
2018-05-04T04:08:31.924Z,79.94
2018-05-04T04:09:31.910Z,79.94
2018-05-04T04:10:31.896Z,79.56
2018-05-04T04:11:31.897Z,79.98
2018-05-04T04:12:32.022Z,79.85
2018-05-04T04:13:31.896Z,79.65
2018-05-04T04:14:31.638Z,79.79
2018-05-04T04:15:31.889Z,79.69
2018-05-04T04:16:31.655Z,79.41
2018-05-04T04:17:32.135Z,79.41
2018-05-04T04:18:31.631Z,79.31
2018-05-04T04:19:31.894Z,78.93
2018-05-04T04:20:31.899Z,79.02
2018-05-04T04:21:31.881Z,78.45
2018-05-04T04:22:31.895Z,78.64
2018-05-04T04:23:31.878Z,78.55
2018-05-04T04:24:31.627Z,78.74
2018-05-04T04:25:31.875Z,78.26
2018-05-04T04:26:31.878Z,78.45
2018-05-04T04:27:31.878Z,78.83
2018-05-04T04:28:31.882Z,78.64
2018-05-04T04:29:31.881Z,78.55
2018-05-04T04:30:31.874Z,78.45
2018-05-04T04:31:31.876Z,78.64
2018-05-04T04:32:31.608Z,78.55
2018-05-04T04:33:31.875Z,78.64
2018-05-04T04:34:31.606Z,78.74
2018-05-04T04:35:31.609Z,78.45
2018-05-04T04:36:31.854Z,78.55
2018-05-04T04:37:31.856Z,78.64
2018-05-04T04:38:31.858Z,77.97
2018-05-04T04:39:31.601Z,78.07
2018-05-04T04:40:31.846Z,78.16
2018-05-04T04:41:31.848Z,78.26
2018-05-04T04:42:31.610Z,78.26
2018-05-04T04:43:31.846Z,78.26
2018-05-04T04:44:31.841Z,77.97
2018-05-04T04:45:31.965Z,77.97
2018-05-04T04:46:31.590Z,77.97
2018-05-04T04:47:31.595Z,77.92
2018-05-04T04:48:31.847Z,77.87
2018-05-04T04:49:31.830Z,77.72
2018-05-04T04:50:31.623Z,77.78
2018-05-04T04:51:31.835Z,77.78
2018-05-04T04:52:31.835Z,77.63
2018-05-04T04:53:31.835Z,77.63
2018-05-04T04:54:31.829Z,77.69
2018-05-04T04:55:31.831Z,77.59
2018-05-04T04:56:31.829Z,77.5
2018-05-04T04:57:31.824Z,77.82
2018-05-04T04:58:31.836Z,77.53
2018-05-04T04:59:31.576Z,77.63
2018-05-04T05:00:31.822Z,77.53
2018-05-04T05:01:31.579Z,77.15
2018-05-04T05:02:31.564Z,77.06
2018-05-04T05:03:31.829Z,77.15
2018-05-04T05:04:31.813Z,77.25
2018-05-04T05:05:31.823Z,77.06
2018-05-04T05:06:31.824Z,77.25
2018-05-04T05:07:31.811Z,76.57
2018-05-04T05:08:31.573Z,76.57
2018-05-04T05:09:31.814Z,76.57
2018-05-04T05:10:31.814Z,76.48
2018-05-04T05:11:31.560Z,76.57
2018-05-04T05:12:31.811Z,76.57
2018-05-04T05:13:31.932Z,76.57
2018-05-04T05:14:31.573Z,76.57
2018-05-04T05:15:31.805Z,76.77
2018-05-04T05:16:31.803Z,76.2
2018-05-04T05:17:32.052Z,76.39
2018-05-04T05:18:31.802Z,76.29
2018-05-04T05:19:31.804Z,75.81
2018-05-04T05:20:31.799Z,75.71
2018-05-04T05:21:31.798Z,75.71
2018-05-04T05:22:31.796Z,75.71
2018-05-04T05:23:31.545Z,75.81
2018-05-04T05:24:31.796Z,76
2018-05-04T05:25:31.799Z,76
2018-05-04T05:26:31.795Z,75.71
2018-05-04T05:27:31.805Z,75.14
2018-05-04T05:28:31.791Z,75.34
2018-05-04T05:29:32.035Z,75.66
2018-05-04T05:30:31.789Z,74.99
2018-05-04T05:31:31.785Z,74.66
2018-05-04T05:32:31.837Z,74.8
2018-05-04T05:33:31.789Z,74.66
2018-05-04T05:34:31.542Z,74.7
2018-05-04T05:35:31.891Z,73.17
2018-05-04T05:36:31.534Z,72.6
2018-05-04T05:37:31.788Z,72.41
2018-05-04T05:38:31.528Z,72.22
2018-05-04T05:39:31.784Z,71.97
2018-05-04T05:40:31.788Z,71.87
2018-05-04T05:41:31.779Z,70.81
2018-05-04T05:42:31.966Z,70.28
2018-05-04T05:43:31.527Z,68.74
2018-05-04T05:44:31.786Z,67.54
2018-05-04T05:45:31.797Z,66.22
2018-05-04T05:46:31.782Z,64.5
2018-05-04T05:47:34.981Z,62.74
2018-05-04T05:48:31.529Z,62.07
2018-05-04T05:49:31.787Z,62.74
2018-05-04T05:50:31.784Z,63.38
2018-05-04T05:51:31.535Z,63.96
2018-05-04T05:52:31.784Z,64.43
2018-05-04T05:53:31.793Z,65.08
2018-05-04T05:54:31.592Z,66.13
2018-05-04T05:55:31.790Z,66.48
2018-05-04T05:56:31.560Z,66.86
2018-05-04T05:57:31.804Z,67.34
2018-05-04T05:58:31.803Z,67.63
2018-05-04T05:59:31.539Z,67.54
2018-05-04T06:00:31.792Z,67.82
2018-05-04T06:01:31.540Z,67.72
2018-05-04T06:02:31.795Z,67.88
2018-05-04T06:03:31.797Z,68.36
2018-05-04T06:04:31.795Z,68.17
2018-05-04T06:05:31.798Z,68.17
2018-05-04T06:06:31.811Z,68.17
2018-05-04T06:07:31.799Z,68.36
2018-05-04T06:08:31.797Z,68.17
2018-05-04T06:09:31.802Z,67.88
2018-05-04T06:10:31.800Z,68.36
2018-05-04T06:11:31.797Z,68.17
2018-05-04T06:12:31.801Z,68.55
2018-05-04T06:13:31.803Z,68.84
2018-05-04T06:23:27.294Z,68.46
2018-05-04T06:24:27.537Z,67.98
2018-05-04T06:25:27.539Z,67.11
2018-05-04T06:26:27.528Z,66.67
2018-05-04T06:27:27.535Z,66.19
2018-05-04T06:28:27.278Z,64.59
2018-05-04T06:29:27.271Z,63.54
2018-05-04T06:30:27.532Z,63.09
2018-05-04T06:31:27.274Z,61.4
2018-05-04T06:32:27.271Z,59.86
2018-05-04T06:33:27.521Z,59.99
2018-05-04T06:34:27.282Z,60.53
2018-05-04T06:35:27.527Z,60.72
2018-05-04T06:36:27.533Z,61.56
2018-05-04T06:37:27.532Z,62.71
2018-05-04T06:38:27.541Z,63.54
2018-05-04T06:39:27.533Z,64.5
2018-05-04T06:40:27.289Z,64.85
2018-05-04T06:41:27.531Z,65.91
2018-05-04T06:42:27.542Z,66
2018-05-04T06:43:27.534Z,66.16
2018-05-04T06:44:27.535Z,66.16
2018-05-04T06:45:27.533Z,66.06
2018-05-04T06:46:27.541Z,66.06
2018-05-04T06:47:27.535Z,66.06
2018-05-04T06:48:27.536Z,65.91
2018-05-04T06:49:27.542Z,65.71
2018-05-04T06:50:27.545Z,65.33
2018-05-04T06:51:27.294Z,65.33
2018-05-04T06:52:27.294Z,64.56
2018-05-04T06:53:27.537Z,64.76
2018-05-04T06:54:27.558Z,64.56
2018-05-04T06:55:27.546Z,63.7
2018-05-04T06:56:27.291Z,62.96
2018-05-04T06:57:27.548Z,61.56
2018-05-04T06:58:27.543Z,58.71
2018-05-04T06:59:27.405Z,56.85
2018-05-04T07:00:27.548Z,55.34
2018-05-04T07:01:27.548Z,53.9
2018-05-04T07:02:27.304Z,52.89
2018-05-04T07:03:27.559Z,52.15
2018-05-04T07:04:27.584Z,50.71
2018-05-04T07:05:27.310Z,50.25
2018-05-04T07:06:27.314Z,49.87
2018-05-04T07:07:27.566Z,50.73
2018-05-04T07:08:28.124Z,51.67
2018-05-04T07:09:27.328Z,53.19
2018-05-04T07:10:27.337Z,52.99
2018-05-04T07:11:27.594Z,53.09
2018-05-04T07:12:27.585Z,53.83
2018-05-04T07:13:27.354Z,54.47
2018-05-04T07:14:27.594Z,55.82
2018-05-04T07:15:27.346Z,56.85
2018-05-04T07:16:27.609Z,58.36
2018-05-04T07:17:27.604Z,58.52
2018-05-04T07:18:27.606Z,57.97
2018-05-04T07:19:27.615Z,57.88
2018-05-04T07:20:27.358Z,56.27
2018-05-04T07:21:27.618Z,55.69
2018-05-04T07:22:27.620Z,54.67
2018-05-04T07:23:27.372Z,54.47
2018-05-04T07:24:27.645Z,54.19
2018-05-04T07:25:27.635Z,53.83
2018-05-04T07:26:27.385Z,53.35
2018-05-04T07:27:27.383Z,53.54
2018-05-04T07:28:27.648Z,52.2
2018-05-04T07:29:27.692Z,52.12
2018-05-04T07:30:27.649Z,51.84
2018-05-04T07:31:27.647Z,51.45
2018-05-04T07:32:27.670Z,50.42
2018-05-04T07:33:27.474Z,49.74
2018-05-04T07:34:27.507Z,50.04
2018-05-04T07:35:27.672Z,50.9
2018-05-04T07:36:27.669Z,51.74
2018-05-04T07:37:27.669Z,51.93
2018-05-04T07:38:27.674Z,51.84
2018-05-04T07:39:27.425Z,52.1
2018-05-04T07:40:27.430Z,52.39
2018-05-04T07:41:27.702Z,51.91
2018-05-04T07:42:27.705Z,52.12
2018-05-04T07:43:27.704Z,51.93
2018-05-04T07:44:27.702Z,52.22
2018-05-04T07:45:27.453Z,52.32
2018-05-04T07:46:27.717Z,52.22
2018-05-04T07:47:27.722Z,51.74
2018-05-04T07:48:27.718Z,52.61
2018-05-04T07:49:27.724Z,52.12
2018-05-04T07:50:27.728Z,52.42
2018-05-04T07:51:27.723Z,49.87
2018-05-04T07:52:27.735Z,47.03
2018-05-04T07:53:27.735Z,45.89
2018-05-04T07:54:27.749Z,45.89
2018-05-04T07:55:27.738Z,47.03
2018-05-04T07:56:27.764Z,48.35
2018-05-04T07:57:27.762Z,49.6
2018-05-04T07:58:27.777Z,51.5
2018-05-04T07:59:27.513Z,50.54
2018-05-04T08:00:27.779Z,48.52
2018-05-04T08:01:27.774Z,48.64
2018-05-04T08:02:27.779Z,49.87
2018-05-04T08:03:27.520Z,51.09
2018-05-04T08:04:27.803Z,52.03
2018-05-04T08:05:27.792Z,51.64
2018-05-04T08:06:27.798Z,51.64
2018-05-04T08:07:27.793Z,51.29
2018-05-04T08:08:27.913Z,51.26
2018-05-04T08:09:27.837Z,51.29
2018-05-04T08:10:27.551Z,51.29
2018-05-04T08:11:27.553Z,51.67
2018-05-04T08:12:27.814Z,52.32
2018-05-04T08:13:27.825Z,53.25
2018-05-04T08:14:27.845Z,53.92
2018-05-04T08:15:27.824Z,54.67
2018-05-04T08:16:27.833Z,55.53
2018-05-04T08:17:27.841Z,56.18
2018-05-04T08:18:27.846Z,56.37
2018-05-04T08:19:27.861Z,56.76
2018-05-04T08:20:27.592Z,56.27
2018-05-04T08:21:27.841Z,55.69
2018-05-04T08:22:27.858Z,55.53
2018-05-04T08:23:27.868Z,55.91
2018-05-04T08:24:27.888Z,55.63
2018-05-04T08:25:27.869Z,55.44
2018-05-04T08:26:27.606Z,55.34
2018-05-04T08:27:27.928Z,55.82
2018-05-04T08:28:27.882Z,55.73
2018-05-04T08:29:27.611Z,55.73
2018-05-04T08:30:27.621Z,55.05
2018-05-04T08:31:27.876Z,54.02
2018-05-04T08:32:27.885Z,52.99
2018-05-04T08:33:27.882Z,50.71
2018-05-04T08:34:27.886Z,49.32
2018-05-04T08:35:28.036Z,49.02
2018-05-04T08:36:27.885Z,48.44
2018-05-04T08:37:27.902Z,48.28
2018-05-04T08:38:27.914Z,46.47
2018-05-04T08:39:27.646Z,45.53
2018-05-04T08:40:27.989Z,45.43
2018-05-04T08:41:27.912Z,46.11
2018-05-04T08:42:27.920Z,46.95
2018-05-04T08:43:27.923Z,47.72
2018-05-04T08:44:27.926Z,48.57
2018-05-04T08:45:27.927Z,49.51
2018-05-04T08:46:27.934Z,50.63
2018-05-04T08:47:27.936Z,51.12
2018-05-04T08:48:27.937Z,51.48
2018-05-04T08:49:27.956Z,51.57
2018-05-04T08:50:27.997Z,52.15
2018-05-04T08:51:27.716Z,51.86
2018-05-04T08:52:27.977Z,51.96
2018-05-04T08:53:27.961Z,51.96
2018-05-04T08:54:27.778Z,51.38
2018-05-04T08:55:27.983Z,51.96
2018-05-04T08:56:27.729Z,51.29
2018-05-04T08:57:27.812Z,51.96
2018-05-04T08:58:27.985Z,50.81
2018-05-04T08:59:28.005Z,50.83
2018-05-04T09:00:27.991Z,50.73
2018-05-04T09:01:27.753Z,50.47
2018-05-04T09:02:28.000Z,51.24
2018-05-04T09:03:28.004Z,50.66
2018-05-04T09:04:28.013Z,50.95
2018-05-04T09:05:28.416Z,50.95
2018-05-04T09:06:28.026Z,50.63
2018-05-04T09:07:27.807Z,51.41
2018-05-04T09:08:28.032Z,50.63
2018-05-04T09:09:28.041Z,50.93
2018-05-04T09:10:28.039Z,51.02
2018-05-04T09:11:27.800Z,50.93
2018-05-04T09:12:28.054Z,51.21
2018-05-04T09:13:28.066Z,51.89
2018-05-04T09:14:28.102Z,52.27
2018-05-04T09:15:28.052Z,52.73
2018-05-04T09:16:28.056Z,53.31
2018-05-04T09:17:27.817Z,53.57
2018-05-04T09:18:28.062Z,53.86
2018-05-04T09:19:27.820Z,53.59
2018-05-04T09:20:28.077Z,53.59
2018-05-04T09:21:28.084Z,53.4
2018-05-04T09:22:27.866Z,54.36
2018-05-04T09:23:28.092Z,54.14
2018-05-04T09:24:27.852Z,53.96
2018-05-04T09:25:28.130Z,54.46
2018-05-04T09:26:27.846Z,54.08
2018-05-04T09:27:28.101Z,55.71
2018-05-04T09:28:28.098Z,54.85
2018-05-04T09:29:28.107Z,53.59
2018-05-04T09:30:28.109Z,53.5
2018-05-04T09:31:27.872Z,53.69
2018-05-04T09:32:28.114Z,53.5
2018-05-04T09:33:28.118Z,54.17
2018-05-04T09:34:27.878Z,55.13
2018-05-04T09:35:28.131Z,54.56
2018-05-04T09:36:27.875Z,53.98
2018-05-04T09:37:28.133Z,53.69
2018-05-04T09:38:28.146Z,54.17
2018-05-04T09:39:28.133Z,53.98
2018-05-04T09:40:28.147Z,54.85
2018-05-04T09:41:28.142Z,54.17
2018-05-04T09:42:28.141Z,53.33
2018-05-04T09:43:27.900Z,53.43
2018-05-04T09:44:28.189Z,53.23
2018-05-04T09:45:28.171Z,53.43
2018-05-04T09:46:28.165Z,53.62
2018-05-04T09:47:27.916Z,54.22
2018-05-04T09:48:28.166Z,54.2
2018-05-04T09:49:27.911Z,53.94
2018-05-04T09:50:28.170Z,53.45
2018-05-04T09:51:28.168Z,52.81
2018-05-04T09:52:28.175Z,51.65
2018-05-04T09:53:28.185Z,53.41
2018-05-04T09:54:28.181Z,52.42
2018-05-04T09:55:27.945Z,52.13
2018-05-04T09:56:27.936Z,51.17
2018-05-04T09:57:28.189Z,51.84
2018-05-04T09:58:28.194Z,52.71
2018-05-04T09:59:27.957Z,52.69
2018-05-04T10:00:27.963Z,53.19
2018-05-04T10:01:28.214Z,52.69
2018-05-04T10:02:28.219Z,53.17
2018-05-04T10:03:28.365Z,52.52
2018-05-04T10:04:28.220Z,52.33
2018-05-04T10:05:28.226Z,52.33
2018-05-04T10:06:28.231Z,52.13
2018-05-04T10:07:28.221Z,51.84
2018-05-04T10:08:28.232Z,51.94
2018-05-04T10:09:28.239Z,52.33
2018-05-04T10:10:28.245Z,52.33
2018-05-04T10:11:27.993Z,52.33
2018-05-04T10:12:28.003Z,53.19
2018-05-04T10:13:27.997Z,53.77
2018-05-04T10:14:28.275Z,53.27
2018-05-04T10:15:28.262Z,53.48
2018-05-04T10:16:28.005Z,53.96
2018-05-04T10:17:28.263Z,53.94
2018-05-04T10:18:28.267Z,53.84
2018-05-04T10:19:28.284Z,54.13
2018-05-04T10:20:28.285Z,53.55
2018-05-04T10:21:28.283Z,53.87
2018-05-04T10:52:49.490Z,54.09
2018-05-04T10:53:49.589Z,53.31
2018-05-04T10:54:49.588Z,53.13
2018-05-04T10:55:49.590Z,53.31
2018-05-04T10:56:49.335Z,53.61
2018-05-04T10:57:49.583Z,53.67
2018-05-04T10:58:49.607Z,53.77
2018-05-04T10:59:49.590Z,53.87
2018-05-04T11:00:49.648Z,53.96
2018-05-04T11:01:49.592Z,54.74
2018-05-04T11:02:49.588Z,53.67
2018-05-04T11:03:49.600Z,54.09
2018-05-04T11:04:49.595Z,53.8
2018-05-04T11:05:49.597Z,53.7
2018-05-04T11:06:49.346Z,53.7
2018-05-04T11:07:49.603Z,53.96
2018-05-04T11:08:49.606Z,54.16
2018-05-04T11:09:49.605Z,53.61
2018-05-04T11:10:49.608Z,54.86
2018-05-04T11:11:49.625Z,53.61
2018-05-04T11:12:49.618Z,53.89
2018-05-04T11:13:49.672Z,55.34
2018-05-04T11:14:49.369Z,53.99
2018-05-04T11:15:49.623Z,53.25
2018-05-04T11:16:49.386Z,52.37
2018-05-04T11:17:50.179Z,52.57
2018-05-04T11:18:49.635Z,52.57
2018-05-04T11:19:49.634Z,52.76
2018-05-04T11:20:49.639Z,53.44
2018-05-04T11:21:49.648Z,53.15
2018-05-04T11:22:49.650Z,53.44
2018-05-04T11:23:49.651Z,54.21
2018-05-04T11:24:49.650Z,53.34
2018-05-04T11:25:49.414Z,53.53
2018-05-04T11:26:49.410Z,53.73
2018-05-04T11:27:49.417Z,52.47
2018-05-04T11:28:49.681Z,51.63
2018-05-04T11:29:49.674Z,51.82
2018-05-04T11:30:49.470Z,51.63
2018-05-04T11:31:49.685Z,51.73
2018-05-04T11:32:49.686Z,52.01
2018-05-04T11:33:49.699Z,53.27
2018-05-04T11:34:49.700Z,52.47
2018-05-04T11:35:49.445Z,52.47
2018-05-04T11:36:49.696Z,53.83
2018-05-04T11:37:49.703Z,52.76
2018-05-04T11:38:49.473Z,53.44
2018-05-04T11:39:49.460Z,52.31
2018-05-04T11:40:49.720Z,52.28
2018-05-04T11:41:49.718Z,53.34
2018-05-04T11:42:49.826Z,53.44
2018-05-04T11:43:49.725Z,53.41
2018-05-04T11:44:49.739Z,53.22
2018-05-04T11:45:49.741Z,53.41
2018-05-04T11:46:49.800Z,53.63
2018-05-04T11:47:49.498Z,52.86
2018-05-04T11:48:49.754Z,52.57
2018-05-04T11:49:49.496Z,52.37
2018-05-04T11:50:49.752Z,52.67
2018-05-04T11:51:49.770Z,52.76
2018-05-04T11:52:49.512Z,52.76
2018-05-04T11:53:49.768Z,52.37
2018-05-04T11:54:49.770Z,52.28
2018-05-04T11:55:49.520Z,52.37
2018-05-04T11:56:49.776Z,52.21
2018-05-04T11:57:49.526Z,51.61
2018-05-04T11:58:49.534Z,51.53
2018-05-04T11:59:49.533Z,50.96
2018-05-04T12:00:49.805Z,51.15
2018-05-04T12:01:49.796Z,51.25
2018-05-04T12:02:49.814Z,50.67
2018-05-04T12:03:49.814Z,50.67
2018-05-04T12:04:49.565Z,50.89
2018-05-04T12:05:49.580Z,51.15
2018-05-04T12:06:49.819Z,50.76
2018-05-04T12:07:49.570Z,50.47
2018-05-04T12:08:49.850Z,50.76
2018-05-04T12:09:49.577Z,51.15
2018-05-04T12:10:49.976Z,51.53
2018-05-04T12:11:49.844Z,51.34
2018-05-04T12:12:49.588Z,51.44
2018-05-04T12:13:49.844Z,51.17
2018-05-04T12:14:49.849Z,50.89
2018-05-04T12:15:49.670Z,50.31
2018-05-04T12:16:49.851Z,50.62
2018-05-04T12:17:49.876Z,49.85
2018-05-04T12:18:49.611Z,49.95
2018-05-04T12:19:49.875Z,50.62
2018-05-04T12:20:49.970Z,49.75
2018-05-04T12:21:49.893Z,49.17
2018-05-04T12:22:49.662Z,48.59
2018-05-04T12:23:49.888Z,48.13
2018-05-04T12:24:49.896Z,47.77
2018-05-04T12:25:49.647Z,47.86
2018-05-04T12:26:49.914Z,47.77
2018-05-04T12:27:49.914Z,48.25
2018-05-04T12:28:49.918Z,48.32
2018-05-04T12:29:49.916Z,48.32
2018-05-04T12:30:49.926Z,48.9
2018-05-04T12:31:50.037Z,49
2018-05-04T12:32:49.955Z,49.29
2018-05-04T12:33:49.687Z,50.04
2018-05-04T12:34:49.973Z,50.52
2018-05-04T12:35:49.727Z,50.71
2018-05-04T12:36:49.948Z,49.85
2018-05-04T12:37:49.960Z,49.85
2018-05-04T12:38:49.956Z,49.19
2018-05-04T12:39:49.963Z,49.39
2018-05-04T12:40:49.967Z,49.39
2018-05-04T12:41:49.721Z,49.29
2018-05-04T12:42:49.732Z,48.81
2018-05-04T12:43:49.736Z,48.9
2018-05-04T12:44:49.989Z,49.29
2018-05-04T12:45:50.057Z,48.81
2018-05-04T12:46:49.994Z,49.19
2018-05-04T12:47:49.751Z,50.52
2018-05-04T12:48:50.015Z,50.91
2018-05-04T12:49:49.759Z,50.71
2018-05-04T12:50:50.049Z,50.43
2018-05-04T12:51:50.031Z,49.95
2018-05-04T12:52:49.775Z,50.23
2018-05-04T12:53:50.168Z,49.49
2018-05-04T12:54:49.783Z,50.55
2018-05-04T12:55:50.045Z,49.97
2018-05-04T12:56:49.796Z,49.87
2018-05-04T12:57:50.055Z,48.52
2018-05-04T12:58:50.067Z,49.58
2018-05-04T12:59:50.058Z,48.9
2018-05-04T13:00:49.840Z,49.97
2018-05-04T13:01:50.107Z,49.39
2018-05-04T13:02:50.089Z,49.77
2018-05-04T13:03:49.825Z,49.39
2018-05-04T13:04:49.836Z,49.07
2018-05-04T13:05:50.087Z,49.97
2018-05-04T13:06:50.089Z,51.32
2018-05-04T13:07:50.103Z,50.07
2018-05-04T13:08:49.854Z,50.74
2018-05-04T13:09:49.855Z,50.55
2018-05-04T13:10:50.143Z,49.87
2018-05-04T13:11:50.115Z,49.49
2018-05-04T13:12:50.127Z,49.77
2018-05-04T13:13:49.879Z,49.12
2018-05-04T13:14:50.135Z,49.02
2018-05-04T13:15:50.188Z,50.28
2018-05-04T13:16:50.138Z,49.8
2018-05-04T13:17:50.138Z,48.35
2018-05-04T13:18:49.897Z,47.48
2018-05-04T13:19:50.151Z,46.63
2018-05-04T13:20:50.175Z,46.63
2018-05-04T13:21:50.167Z,47.5
2018-05-04T13:22:50.162Z,47.31
2018-05-04T13:23:50.973Z,47.79
2018-05-04T13:24:50.179Z,48.44
2018-05-04T13:25:50.200Z,48.9
2018-05-04T13:26:50.177Z,49
2018-05-04T13:27:49.940Z,49.49
2018-05-04T13:28:50.194Z,49.29
2018-05-04T13:29:49.944Z,49.49
2018-05-04T13:30:50.293Z,49.85
2018-05-04T13:31:50.210Z,49.85
2018-05-04T13:32:50.214Z,49.85
2018-05-04T13:33:50.019Z,50.52
2018-05-04T13:34:50.244Z,50.07